createdAt,value
2023-01-25T00:00:43.811Z,4.10
2023-01-25T00:04:44.974Z,3.60
2023-01-25T00:08:51.155Z,4.10
2023-01-25T00:12:52.092Z,3.50
2023-01-25T00:16:53.080Z,3.50
2023-01-25T00:20:54.223Z,4.00
2023-01-25T00:24:55.170Z,2.80
2023-01-25T00:28:56.414Z,4.10
2023-01-25T00:33:04.028Z,4.30
2023-01-25T00:37:26.457Z,4.40
2023-01-25T00:41:27.534Z,4.70
2023-01-25T00:45:28.649Z,5.10
2023-01-25T00:49:31.137Z,5.10
2023-01-25T00:53:32.324Z,3.60
2023-01-25T00:57:33.509Z,4.40
2023-01-25T01:01:34.767Z,4.30
2023-01-25T01:05:36.045Z,3.60
2023-01-25T01:09:37.152Z,4.20
2023-01-25T01:13:39.062Z,2.90
2023-01-25T01:17:39.990Z,3.60
2023-01-25T01:21:41.651Z,4.00
2023-01-25T01:25:42.838Z,4.50
2023-01-25T01:29:44.818Z,4.00
2023-01-25T01:33:53.927Z,3.20
2023-01-25T01:37:54.953Z,3.60
2023-01-25T01:41:55.972Z,3.60
2023-01-25T01:45:59.915Z,4.00
2023-01-25T01:50:19.682Z,3.10
2023-01-25T01:54:36.428Z,2.80
2023-01-25T01:58:37.905Z,3.10
2023-01-25T02:02:40.356Z,2.80
2023-01-25T02:06:50.987Z,3.20
2023-01-25T02:10:52.317Z,4.30
2023-01-25T02:14:54.494Z,4.10
2023-01-25T02:18:57.645Z,4.40
2023-01-25T02:23:11.492Z,4.50
2023-01-25T02:27:12.411Z,3.80
2023-01-25T02:31:13.455Z,4.60
2023-01-25T02:35:27.000Z,3.30
2023-01-25T02:39:28.735Z,2.20
2023-01-25T02:43:33.066Z,1.80
2023-01-25T02:47:34.016Z,1.90
2023-01-25T02:51:37.669Z,1.60
2023-01-25T02:55:38.619Z,2.00
2023-01-25T02:59:39.784Z,2.70
2023-01-25T03:03:41.502Z,2.30
2023-01-25T03:07:42.616Z,2.00
2023-01-25T03:11:43.873Z,3.20
2023-01-25T03:15:44.965Z,3.60
2023-01-25T03:19:45.966Z,4.20
2023-01-25T03:23:49.848Z,3.60
2023-01-25T03:27:50.811Z,2.90
2023-01-25T03:31:51.889Z,3.70
2023-01-25T03:35:54.064Z,3.70
2023-01-25T03:39:55.679Z,2.80
2023-01-25T03:43:56.781Z,2.60
2023-01-25T03:47:57.763Z,2.10
2023-01-25T03:51:58.908Z,1.70
2023-01-25T03:56:03.714Z,2.10
2023-01-25T04:00:05.574Z,3.00
2023-01-25T04:04:06.696Z,2.90
2023-01-25T04:08:07.781Z,3.70
2023-01-25T04:12:09.026Z,3.70
2023-01-25T04:16:13.335Z,3.80
2023-01-25T04:20:14.787Z,3.20
2023-01-25T04:24:15.793Z,3.10
2023-01-25T04:28:16.775Z,2.20
2023-01-25T04:32:17.838Z,2.90
2023-01-25T04:36:18.997Z,2.80
2023-01-25T04:40:20.202Z,2.40
2023-01-25T04:44:21.354Z,3.10
2023-01-25T04:48:22.496Z,3.20
2023-01-25T04:52:23.530Z,2.50
2023-01-25T04:56:25.053Z,2.80
2023-01-25T05:00:27.468Z,2.50
2023-01-25T05:04:28.490Z,2.80
2023-01-25T05:08:29.624Z,2.10
2023-01-25T05:12:30.624Z,2.20
2023-01-25T05:16:31.702Z,1.70
2023-01-25T05:20:33.137Z,2.60
2023-01-25T05:24:35.351Z,1.20
2023-01-25T05:28:36.465Z,2.60
2023-01-25T05:32:37.607Z,2.40
2023-01-25T05:36:38.662Z,2.60
2023-01-25T05:40:39.847Z,2.60
2023-01-25T05:44:40.929Z,2.60
2023-01-25T05:48:42.079Z,2.20
2023-01-25T05:52:45.471Z,3.50
2023-01-25T05:56:48.816Z,3.10
2023-01-25T06:00:49.924Z,2.80
2023-01-25T06:04:50.887Z,2.90
2023-01-25T06:08:52.111Z,2.20
2023-01-25T06:12:59.469Z,1.90
2023-01-25T06:17:00.689Z,1.70
2023-01-25T06:21:03.237Z,2.40
2023-01-25T06:25:05.102Z,2.70
2023-01-25T06:29:06.548Z,2.30
2023-01-25T06:33:07.517Z,2.70
2023-01-25T06:37:08.673Z,3.60
2023-01-25T06:41:12.224Z,4.30
2023-01-25T06:45:13.816Z,3.70
2023-01-25T06:49:14.878Z,3.80
2023-01-25T06:53:15.937Z,4.10
2023-01-25T06:57:17.158Z,3.40
2023-01-25T07:01:25.562Z,3.70
2023-01-25T07:05:26.569Z,4.70
2023-01-25T07:09:27.695Z,4.30
2023-01-25T07:13:31.356Z,3.90
2023-01-25T07:17:32.386Z,3.30
2023-01-25T07:21:33.458Z,4.10
2023-01-25T07:25:34.522Z,4.00
2023-01-25T07:29:35.648Z,4.70
2023-01-25T07:33:36.585Z,3.40
2023-01-25T07:37:38.253Z,3.70
2023-01-25T07:41:39.894Z,4.20
2023-01-25T07:45:42.856Z,4.70
2023-01-25T07:49:43.957Z,4.60
2023-01-25T07:53:45.023Z,3.50
2023-01-25T07:57:46.015Z,4.00
2023-01-25T08:01:47.148Z,3.90
2023-01-25T08:05:48.726Z,3.60
2023-01-25T08:09:49.839Z,2.30
2023-01-25T08:13:51.256Z,1.90
2023-01-25T08:17:52.394Z,2.00
2023-01-25T08:21:53.495Z,2.30
2023-01-25T08:25:55.629Z,1.90
2023-01-25T08:29:56.626Z,2.00
2023-01-25T08:33:58.919Z,3.30
2023-01-25T08:38:00.015Z,3.40
2023-01-25T08:42:01.258Z,3.50
2023-01-25T08:46:04.363Z,3.10
2023-01-25T08:50:06.322Z,2.00
2023-01-25T08:54:10.349Z,2.70
2023-01-25T08:58:13.045Z,2.50
2023-01-25T09:02:14.134Z,1.60
2023-01-25T09:06:15.987Z,2.20
2023-01-25T09:10:17.486Z,3.60
2023-01-25T09:14:18.578Z,4.20
2023-01-25T09:18:20.745Z,2.80
2023-01-25T09:22:21.878Z,3.50
2023-01-25T09:26:23.057Z,3.30
2023-01-25T09:30:34.027Z,4.30
2023-01-25T09:34:26.953Z,4.80
2023-01-25T09:38:29.721Z,3.50
2023-01-25T09:42:37.134Z,4.10
2023-01-25T09:46:44.944Z,4.00
2023-01-25T09:50:52.860Z,4.30
2023-01-25T09:54:54.103Z,4.60
2023-01-25T09:58:58.823Z,5.10
2023-01-25T10:03:35.562Z,4.80
2023-01-25T10:08:07.344Z,4.30
2023-01-25T10:12:23.591Z,4.70
2023-01-25T10:16:28.715Z,5.00
2023-01-25T10:20:58.757Z,4.60
2023-01-25T10:25:24.964Z,4.20
2023-01-25T10:29:32.461Z,4.30
2023-01-25T10:33:38.696Z,5.30
2023-01-25T10:37:41.233Z,5.60
2023-01-25T10:41:47.989Z,5.60
2023-01-25T10:45:49.758Z,6.10
2023-01-25T10:49:54.027Z,6.10
2023-01-25T10:54:02.844Z,5.00
2023-01-25T10:58:03.801Z,4.30
2023-01-25T11:02:28.195Z,4.60
2023-01-25T11:06:38.111Z,5.30
2023-01-25T11:10:42.180Z,6.00
2023-01-25T11:14:43.962Z,5.90
2023-01-25T11:18:51.550Z,4.70
2023-01-25T11:22:55.286Z,2.80
2023-01-25T11:27:26.056Z,3.20
2023-01-25T11:31:27.313Z,3.90
2023-01-25T11:35:32.263Z,4.10
2023-01-25T11:39:46.143Z,4.10
2023-01-25T11:44:12.142Z,5.10
2023-01-25T11:48:22.970Z,4.90
2023-01-25T11:53:01.437Z,4.70
2023-01-25T11:57:09.126Z,5.20
2023-01-25T12:01:16.851Z,4.50
2023-01-25T12:05:38.140Z,4.60
2023-01-25T12:10:08.778Z,5.00
2023-01-25T12:14:33.332Z,4.20
2023-01-25T12:19:02.076Z,4.20
2023-01-25T12:23:26.482Z,5.40
2023-01-25T12:27:52.315Z,2.80
2023-01-25T12:32:09.478Z,3.60
2023-01-25T12:36:20.520Z,5.20
2023-01-25T12:40:42.321Z,5.90
2023-01-25T12:44:47.291Z,6.00
2023-01-25T12:48:52.843Z,6.00
2023-01-25T12:53:31.185Z,6.20
2023-01-25T12:57:42.070Z,5.30
2023-01-25T13:02:07.538Z,3.40
2023-01-25T13:06:27.721Z,3.60
2023-01-25T13:10:32.638Z,3.70
2023-01-25T13:14:38.676Z,3.80
2023-01-25T13:18:41.376Z,4.50
2023-01-25T13:22:46.404Z,4.70
2023-01-25T13:26:59.085Z,5.20
2023-01-25T13:31:00.120Z,3.40
2023-01-25T13:35:01.767Z,3.60
2023-01-25T13:39:23.171Z,4.40
2023-01-25T13:43:24.252Z,5.00
2023-01-25T13:47:32.172Z,4.60
2023-01-25T13:51:36.207Z,3.80
2023-01-25T13:55:40.305Z,4.00
2023-01-25T13:59:41.406Z,4.80
2023-01-25T14:03:45.799Z,4.40
2023-01-25T14:07:49.733Z,3.60
2023-01-25T14:11:59.414Z,4.60
2023-01-25T14:16:03.749Z,3.70
2023-01-25T14:20:08.911Z,3.80
2023-01-25T14:24:10.977Z,4.40
2023-01-25T14:28:14.374Z,4.50
2023-01-25T14:32:20.018Z,4.10
2023-01-25T14:36:25.673Z,4.60
2023-01-25T14:40:25.826Z,4.30
2023-01-25T14:44:28.055Z,4.50
2023-01-25T14:48:35.070Z,4.50
2023-01-25T14:52:38.824Z,4.40
2023-01-25T14:57:01.329Z,4.40
2023-01-25T15:01:04.610Z,4.30
2023-01-25T15:05:21.315Z,4.20
2023-01-25T15:09:34.573Z,4.60
2023-01-25T15:13:35.602Z,4.70
2023-01-25T15:17:43.601Z,4.40
2023-01-25T15:21:44.750Z,4.60
2023-01-25T15:25:51.823Z,5.10
2023-01-25T15:29:53.039Z,4.30
2023-01-25T15:33:55.579Z,4.50
2023-01-25T15:37:56.915Z,4.80
2023-01-25T15:41:58.532Z,4.90
2023-01-25T15:46:00.533Z,4.70
2023-01-25T15:50:02.429Z,5.00
2023-01-25T15:54:04.060Z,4.50
2023-01-25T15:58:05.221Z,5.00
2023-01-25T16:02:11.897Z,4.50
2023-01-25T16:06:19.769Z,4.10
2023-01-25T16:10:24.939Z,3.80
2023-01-25T16:14:28.479Z,3.20
2023-01-25T16:18:29.542Z,4.10
2023-01-25T16:22:30.504Z,3.50
2023-01-25T16:26:31.676Z,3.70
2023-01-25T16:30:33.440Z,4.20
2023-01-25T16:34:34.405Z,4.40
2023-01-25T16:38:35.605Z,4.30
2023-01-25T16:42:36.623Z,4.70
2023-01-25T16:47:17.092Z,4.30
2023-01-25T16:51:24.117Z,3.40
2023-01-25T16:55:25.216Z,3.80
2023-01-25T16:59:26.175Z,4.60
2023-01-25T17:03:27.527Z,3.80
2023-01-25T17:07:28.617Z,4.60
2023-01-25T17:11:30.614Z,4.30
2023-01-25T17:15:33.166Z,4.00
2023-01-25T17:19:34.149Z,3.50
2023-01-25T17:23:37.085Z,3.60
2023-01-25T17:27:38.005Z,3.70
2023-01-25T17:31:40.580Z,3.70
2023-01-25T17:35:41.513Z,3.70
2023-01-25T17:39:42.614Z,3.60
2023-01-25T17:43:44.972Z,4.10
2023-01-25T17:47:46.189Z,3.60
2023-01-25T17:51:47.195Z,3.30
2023-01-25T17:55:48.445Z,3.40
2023-01-25T17:59:49.943Z,3.20
2023-01-25T18:03:53.352Z,3.40
2023-01-25T18:07:54.585Z,3.10
2023-01-25T18:11:55.592Z,2.30
2023-01-25T18:15:56.535Z,3.80
2023-01-25T18:19:58.580Z,3.50
2023-01-25T18:24:03.635Z,2.70
2023-01-25T18:28:05.004Z,2.40
2023-01-25T18:32:06.674Z,3.10
2023-01-25T18:36:07.951Z,3.50
2023-01-25T18:40:10.839Z,3.40
2023-01-25T18:44:12.313Z,2.80
2023-01-25T18:48:16.325Z,3.30
2023-01-25T18:52:18.533Z,3.00
2023-01-25T18:56:21.263Z,3.60
2023-01-25T19:00:22.372Z,4.10
2023-01-25T19:04:23.413Z,4.20
2023-01-25T19:08:26.051Z,4.60
2023-01-25T19:12:27.488Z,4.70
2023-01-25T19:16:28.684Z,4.80
2023-01-25T19:20:30.345Z,4.80
2023-01-25T19:24:31.905Z,3.40
2023-01-25T19:28:38.012Z,3.50
2023-01-25T19:32:39.767Z,2.70
2023-01-25T19:36:45.438Z,2.00
2023-01-25T19:40:46.461Z,2.70
2023-01-25T19:44:47.688Z,3.70
2023-01-25T19:48:50.834Z,4.00
2023-01-25T19:52:52.039Z,3.40
2023-01-25T19:56:53.027Z,3.40
2023-01-25T20:00:55.266Z,4.00
2023-01-25T20:04:56.463Z,3.60
2023-01-25T20:08:57.962Z,3.60
2023-01-25T20:12:58.967Z,3.70
2023-01-25T20:17:00.117Z,4.10
2023-01-25T20:21:10.212Z,2.90
2023-01-25T20:25:11.717Z,2.20
2023-01-25T20:29:13.137Z,2.00
2023-01-25T20:33:15.945Z,2.90
2023-01-25T20:37:20.494Z,2.50
2023-01-25T20:41:22.189Z,3.10
2023-01-25T20:45:24.222Z,3.20
2023-01-25T20:49:25.952Z,2.50
2023-01-25T20:53:27.244Z,2.20
2023-01-25T20:57:28.564Z,2.90
2023-01-25T21:01:36.255Z,2.10
2023-01-25T21:05:38.476Z,1.90
2023-01-25T21:09:41.500Z,2.80
2023-01-25T21:13:42.469Z,3.70
2023-01-25T21:17:43.910Z,3.10
2023-01-25T21:21:44.993Z,2.70
2023-01-25T21:25:46.172Z,1.80
2023-01-25T21:29:47.346Z,2.90
2023-01-25T21:33:50.251Z,2.80
2023-01-25T21:37:51.821Z,2.60
2023-01-25T21:41:52.954Z,2.30
2023-01-25T21:46:12.351Z,3.70
2023-01-25T21:50:31.770Z,3.40
2023-01-25T21:54:34.835Z,3.30
2023-01-25T21:58:36.114Z,3.70
2023-01-25T22:02:37.234Z,3.10
2023-01-25T22:06:39.088Z,3.20
2023-01-25T22:10:40.142Z,3.00
2023-01-25T22:14:41.551Z,2.80
2023-01-25T22:18:42.947Z,3.70
2023-01-25T22:22:44.376Z,3.30
2023-01-25T22:26:51.967Z,3.10
2023-01-25T22:30:53.494Z,3.30
2023-01-25T22:34:54.811Z,3.70
2023-01-25T22:38:56.406Z,3.70
2023-01-25T22:42:57.660Z,3.50
2023-01-25T22:46:58.752Z,2.90
2023-01-25T22:51:01.673Z,3.30
2023-01-25T22:55:02.885Z,3.60
2023-01-25T22:59:05.912Z,2.40
2023-01-25T23:03:07.166Z,2.90
2023-01-25T23:07:16.396Z,2.60
2023-01-25T23:11:19.862Z,3.40
2023-01-25T23:15:21.491Z,3.00
2023-01-25T23:19:25.474Z,3.00
2023-01-25T23:23:27.424Z,2.70
2023-01-25T23:27:28.681Z,2.30
2023-01-25T23:31:30.238Z,3.00
2023-01-25T23:35:31.525Z,2.80
2023-01-25T23:39:33.166Z,2.40
2023-01-25T23:43:34.696Z,3.40
2023-01-25T23:47:35.859Z,3.20
2023-01-25T23:51:37.102Z,3.20
2023-01-25T23:55:38.249Z,3.00
2023-01-25T23:59:40.072Z,3.00
